createdAt,value
2023-02-22T00:00:42.457Z,32.07
2023-02-22T00:01:42.447Z,31.74
2023-02-22T00:02:42.438Z,31.74
2023-02-22T00:03:42.454Z,30.45
2023-02-22T00:04:42.434Z,30.45
2023-02-22T00:05:42.469Z,35.45
2023-02-22T00:06:42.414Z,32.23
2023-02-22T00:07:42.423Z,31.74
2023-02-22T00:08:42.368Z,33.84
2023-02-22T00:09:42.374Z,34.00
2023-02-22T00:10:42.511Z,41.89
2023-02-22T00:11:42.336Z,34.97
2023-02-22T00:12:42.407Z,38.03
2023-02-22T00:13:42.348Z,34.32
2023-02-22T00:14:42.322Z,32.23
2023-02-22T00:15:42.334Z,34.80
2023-02-22T00:16:42.413Z,30.78
2023-02-22T00:17:42.395Z,30.62
2023-02-22T00:18:42.323Z,31.10
2023-02-22T00:19:42.258Z,35.61
2023-02-22T00:20:42.269Z,35.29
2023-02-22T00:21:42.260Z,32.07
2023-02-22T00:22:42.274Z,33.84
2023-02-22T00:23:42.226Z,37.71
2023-02-22T00:24:42.255Z,38.19
2023-02-22T00:25:42.225Z,38.83
2023-02-22T00:26:42.212Z,34.16
2023-02-22T00:27:42.208Z,33.68
2023-02-22T00:28:42.218Z,38.83
2023-02-22T00:29:42.156Z,46.57
2023-02-22T00:30:42.175Z,38.35
2023-02-22T00:31:42.192Z,37.71
2023-02-22T00:32:42.177Z,33.03
2023-02-22T00:33:42.144Z,31.26
2023-02-22T00:34:42.092Z,30.13
2023-02-22T00:35:42.130Z,32.55
2023-02-22T00:36:42.074Z,31.10
2023-02-22T00:37:42.191Z,35.13
2023-02-22T00:38:42.107Z,32.87
2023-02-22T00:39:42.056Z,34.80
2023-02-22T00:40:42.044Z,38.51
2023-02-22T00:41:42.118Z,31.74
2023-02-22T00:42:42.086Z,33.52
2023-02-22T00:43:42.030Z,37.54
2023-02-22T00:44:41.996Z,44.96
2023-02-22T00:45:42.012Z,35.93
2023-02-22T00:46:42.019Z,32.23
2023-02-22T00:47:42.740Z,30.62
2023-02-22T00:48:41.986Z,32.23
2023-02-22T00:49:42.015Z,35.93
2023-02-22T00:50:41.967Z,40.61
2023-02-22T00:51:41.986Z,33.52
2023-02-22T00:52:41.972Z,30.13
2023-02-22T00:53:41.914Z,29.97
2023-02-22T00:54:42.700Z,35.13
2023-02-22T00:55:41.945Z,50.11
2023-02-22T00:56:41.940Z,45.28
2023-02-22T00:57:41.906Z,42.54
2023-02-22T00:58:41.958Z,42.86
2023-02-22T00:59:41.899Z,32.55
2023-02-22T01:00:41.857Z,38.19
2023-02-22T01:01:41.827Z,37.38
2023-02-22T01:02:41.850Z,34.97
2023-02-22T01:03:41.849Z,34.00
2023-02-22T01:04:41.812Z,31.74
2023-02-22T01:05:41.805Z,30.62
2023-02-22T01:06:41.828Z,31.26
2023-02-22T01:07:41.838Z,38.67
2023-02-22T01:08:41.853Z,32.23
2023-02-22T01:09:41.758Z,46.73
2023-02-22T01:10:41.757Z,33.68
2023-02-22T01:11:41.778Z,34.16
2023-02-22T01:12:41.973Z,42.54
2023-02-22T01:13:41.742Z,33.52
2023-02-22T01:14:41.733Z,32.39
2023-02-22T01:15:41.708Z,35.13
2023-02-22T01:16:41.712Z,38.99
2023-02-22T01:17:41.681Z,37.87
2023-02-22T01:18:41.709Z,33.84
2023-02-22T01:19:41.783Z,34.16
2023-02-22T01:20:41.656Z,37.54
2023-02-22T01:21:41.659Z,35.77
2023-02-22T01:22:41.640Z,32.87
2023-02-22T01:23:41.635Z,36.09
2023-02-22T01:24:41.695Z,41.57
2023-02-22T01:25:41.655Z,39.64
2023-02-22T01:26:41.608Z,35.45
2023-02-22T01:27:41.561Z,32.55
2023-02-22T01:28:41.610Z,34.64
2023-02-22T01:29:41.563Z,38.03
2023-02-22T01:30:41.643Z,41.09
2023-02-22T01:31:41.696Z,33.68
2023-02-22T01:32:41.540Z,34.00
2023-02-22T01:33:41.582Z,34.32
2023-02-22T01:34:41.521Z,32.07
2023-02-22T01:35:41.581Z,33.52
2023-02-22T01:36:41.492Z,38.99
2023-02-22T01:37:41.480Z,43.83
2023-02-22T01:38:41.575Z,41.89
2023-02-22T01:39:41.483Z,32.55
2023-02-22T01:40:41.448Z,31.74
2023-02-22T01:41:41.465Z,33.35
2023-02-22T01:42:41.417Z,38.19
2023-02-22T01:43:41.462Z,32.39
2023-02-22T01:44:41.423Z,33.03
2023-02-22T01:45:41.518Z,39.48
2023-02-22T01:46:41.407Z,31.26
2023-02-22T01:47:41.385Z,32.23
2023-02-22T01:48:41.391Z,42.70
2023-02-22T01:49:42.043Z,40.28
2023-02-22T01:50:41.357Z,39.32
2023-02-22T01:51:41.350Z,38.19
2023-02-22T01:52:41.324Z,36.58
2023-02-22T01:53:41.372Z,31.74
2023-02-22T01:54:41.307Z,32.55
2023-02-22T01:55:41.308Z,35.61
2023-02-22T01:56:41.313Z,36.09
2023-02-22T01:57:41.337Z,35.77
2023-02-22T01:58:41.300Z,36.74
2023-02-22T01:59:41.255Z,41.41
2023-02-22T02:00:41.258Z,40.12
2023-02-22T02:01:41.320Z,33.03
2023-02-22T02:02:41.249Z,35.77
2023-02-22T02:03:41.290Z,43.51
2023-02-22T02:04:41.214Z,39.16
2023-02-22T02:05:41.210Z,46.25
2023-02-22T02:06:41.212Z,44.79
2023-02-22T02:07:41.196Z,34.32
2023-02-22T02:08:42.280Z,31.74
2023-02-22T02:09:41.180Z,34.16
2023-02-22T02:10:41.171Z,42.70
2023-02-22T02:11:41.174Z,44.79
2023-02-22T02:12:41.153Z,32.07
2023-02-22T02:13:41.164Z,31.10
2023-02-22T02:14:41.181Z,33.84
2023-02-22T02:15:41.107Z,37.06
2023-02-22T02:16:41.152Z,42.54
2023-02-22T02:17:41.088Z,31.74
2023-02-22T02:18:41.101Z,34.16
2023-02-22T02:19:41.178Z,51.88
2023-02-22T02:20:41.058Z,34.97
2023-02-22T02:21:41.056Z,38.99
2023-02-22T02:22:41.035Z,34.64
2023-02-22T02:23:41.057Z,43.51
2023-02-22T02:24:41.074Z,47.70
2023-02-22T02:25:41.053Z,37.06
2023-02-22T02:26:40.999Z,42.54
2023-02-22T02:27:41.003Z,36.74
2023-02-22T02:28:41.011Z,32.23
2023-02-22T02:29:40.964Z,33.19
2023-02-22T02:30:41.020Z,33.84
2023-02-22T02:31:41.122Z,32.39
2023-02-22T02:32:41.009Z,33.52
2023-02-22T02:33:40.968Z,36.09
2023-02-22T02:34:40.920Z,30.94
2023-02-22T02:35:40.930Z,33.03
2023-02-22T02:36:40.926Z,39.80
2023-02-22T02:37:40.874Z,33.19
2023-02-22T02:38:41.015Z,33.03
2023-02-22T02:39:40.872Z,41.09
2023-02-22T02:40:40.894Z,35.13
2023-02-22T02:41:40.843Z,30.45
2023-02-22T02:42:40.896Z,30.13
2023-02-22T02:43:40.910Z,29.97
2023-02-22T02:44:40.837Z,30.78
2023-02-22T02:45:40.831Z,35.45
2023-02-22T02:46:40.816Z,31.74
2023-02-22T02:47:40.778Z,30.94
2023-02-22T02:48:40.829Z,30.78
2023-02-22T02:49:40.935Z,30.78
2023-02-22T02:50:40.752Z,35.61
2023-02-22T02:51:40.730Z,43.99
2023-02-22T02:52:40.763Z,35.93
2023-02-22T02:53:40.756Z,30.45
2023-02-22T02:54:40.726Z,34.00
2023-02-22T02:55:40.725Z,48.98
2023-02-22T02:56:40.831Z,40.61
2023-02-22T02:57:40.698Z,40.61
2023-02-22T02:58:40.795Z,41.09
2023-02-22T02:59:40.697Z,40.77
2023-02-22T03:00:40.669Z,42.22
2023-02-22T03:01:40.719Z,38.99
2023-02-22T03:02:40.648Z,38.03
2023-02-22T03:03:40.702Z,34.16
2023-02-22T03:04:40.630Z,37.38
2023-02-22T03:05:40.670Z,43.99
2023-02-22T03:06:40.579Z,37.06
2023-02-22T03:07:40.637Z,32.39
2023-02-22T03:08:41.245Z,39.48
2023-02-22T03:09:40.567Z,34.64
2023-02-22T03:10:40.567Z,35.13
2023-02-22T03:11:40.600Z,34.32
2023-02-22T03:12:40.525Z,35.61
2023-02-22T03:13:40.572Z,37.38
2023-02-22T03:14:40.531Z,43.34
2023-02-22T03:15:41.166Z,34.00
2023-02-22T03:16:40.571Z,33.19
2023-02-22T03:17:40.572Z,32.71
2023-02-22T03:18:40.547Z,33.03
2023-02-22T03:19:40.506Z,31.58
2023-02-22T03:20:40.510Z,32.71
2023-02-22T03:21:40.467Z,38.03
2023-02-22T03:22:40.435Z,35.13
2023-02-22T03:23:40.450Z,42.22
2023-02-22T03:24:40.440Z,32.39
2023-02-22T03:25:40.421Z,40.12
2023-02-22T03:26:40.400Z,41.57
2023-02-22T03:27:40.414Z,39.80
2023-02-22T03:28:40.425Z,43.51
2023-02-22T03:29:40.447Z,32.39
2023-02-22T03:30:40.492Z,32.87
2023-02-22T03:31:40.370Z,36.90
2023-02-22T03:32:40.329Z,31.74
2023-02-22T03:33:40.428Z,35.61
2023-02-22T03:34:40.303Z,37.22
2023-02-22T03:35:41.401Z,38.03
2023-02-22T03:36:40.288Z,32.23
2023-02-22T03:37:40.289Z,34.32
2023-02-22T03:38:40.285Z,38.35
2023-02-22T03:39:40.279Z,43.99
2023-02-22T03:40:40.422Z,36.42
2023-02-22T03:41:40.257Z,43.99
2023-02-22T03:42:40.247Z,34.16
2023-02-22T03:43:40.305Z,42.06
2023-02-22T03:44:40.246Z,35.45
2023-02-22T03:45:40.225Z,35.45
2023-02-22T03:46:40.276Z,46.25
2023-02-22T03:47:40.286Z,43.83
2023-02-22T03:48:41.232Z,36.09
2023-02-22T03:49:40.228Z,39.48
2023-02-22T03:50:40.191Z,33.35
2023-02-22T03:51:40.196Z,35.45
2023-02-22T03:52:40.256Z,39.32
2023-02-22T03:53:40.153Z,39.96
2023-02-22T03:54:40.129Z,50.92
2023-02-22T03:55:41.139Z,47.21
2023-02-22T03:56:40.112Z,51.40
2023-02-22T03:57:40.105Z,48.50
2023-02-22T03:58:40.125Z,48.02
2023-02-22T03:59:40.139Z,45.12
2023-02-22T04:00:40.082Z,47.70
2023-02-22T04:01:40.060Z,42.70
2023-02-22T04:02:40.089Z,46.89
2023-02-22T04:03:40.048Z,48.34
2023-02-22T04:04:40.120Z,50.43
2023-02-22T04:05:40.041Z,46.89
2023-02-22T04:06:40.020Z,41.09
2023-02-22T04:07:39.969Z,42.38
2023-02-22T04:08:40.011Z,47.21
2023-02-22T04:09:40.025Z,41.09
2023-02-22T04:10:39.993Z,37.38
2023-02-22T04:11:39.965Z,46.89
2023-02-22T04:12:39.942Z,43.51
2023-02-22T04:13:39.959Z,38.51
2023-02-22T04:14:40.011Z,49.63
2023-02-22T04:15:40.816Z,48.02
2023-02-22T04:16:39.938Z,47.05
2023-02-22T04:17:40.007Z,49.31
2023-02-22T04:18:39.887Z,48.02
2023-02-22T04:19:39.947Z,46.73
2023-02-22T04:20:39.859Z,48.50
2023-02-22T04:21:39.936Z,47.70
2023-02-22T04:22:39.875Z,51.08
2023-02-22T04:23:39.856Z,49.63
2023-02-22T04:24:39.876Z,50.43
2023-02-22T04:25:39.841Z,48.66
2023-02-22T04:26:39.819Z,49.95
2023-02-22T04:27:39.820Z,55.27
2023-02-22T04:28:39.834Z,53.82
2023-02-22T04:29:39.842Z,51.72
2023-02-22T04:30:39.819Z,53.82
2023-02-22T04:31:39.827Z,53.01
2023-02-22T04:32:39.772Z,52.21
2023-02-22T04:33:39.795Z,52.85
2023-02-22T04:34:39.782Z,49.79
2023-02-22T04:35:39.760Z,48.34
2023-02-22T04:36:39.745Z,51.88
2023-02-22T04:37:39.719Z,43.83
2023-02-22T04:38:39.704Z,48.18
2023-02-22T04:39:39.774Z,52.05
2023-02-22T04:40:39.783Z,54.30
2023-02-22T04:41:39.625Z,54.62
2023-02-22T04:42:40.734Z,52.69
2023-02-22T04:43:39.660Z,48.18
2023-02-22T04:44:39.683Z,53.01
2023-02-22T04:45:39.644Z,48.34
2023-02-22T04:46:39.686Z,50.11
2023-02-22T04:47:40.553Z,55.11
2023-02-22T04:48:39.655Z,53.33
2023-02-22T04:49:39.632Z,48.66
2023-02-22T04:50:39.609Z,53.82
2023-02-22T04:51:39.557Z,53.50
2023-02-22T04:52:39.660Z,55.11
2023-02-22T04:53:39.545Z,49.15
2023-02-22T04:54:39.588Z,51.40
2023-02-22T04:55:39.540Z,51.88
2023-02-22T04:56:39.601Z,54.95
2023-02-22T04:57:39.573Z,52.05
2023-02-22T04:58:39.505Z,41.73
2023-02-22T04:59:39.778Z,49.47
2023-02-22T05:00:39.518Z,52.37
2023-02-22T05:01:39.523Z,53.82
2023-02-22T05:02:39.518Z,53.33
2023-02-22T05:03:39.464Z,49.63
2023-02-22T05:04:39.528Z,49.63
2023-02-22T05:05:39.496Z,50.11
2023-02-22T05:06:39.419Z,52.05
2023-02-22T05:07:39.411Z,51.56
2023-02-22T05:08:39.385Z,51.08
2023-02-22T05:09:39.458Z,51.08
2023-02-22T05:10:39.396Z,43.67
2023-02-22T05:11:39.369Z,52.69
2023-02-22T05:12:39.386Z,52.05
2023-02-22T05:13:39.364Z,53.50
2023-02-22T05:14:39.354Z,52.69
2023-02-22T05:15:39.430Z,54.30
2023-02-22T05:16:39.330Z,52.53
2023-02-22T05:17:39.319Z,48.34
2023-02-22T05:18:39.293Z,50.92
2023-02-22T05:19:39.308Z,54.14
2023-02-22T05:20:39.301Z,50.60
2023-02-22T05:21:39.292Z,50.43
2023-02-22T05:22:39.303Z,57.52
2023-02-22T05:23:39.278Z,54.95
2023-02-22T05:24:39.275Z,55.27
2023-02-22T05:25:39.224Z,53.01
2023-02-22T05:26:39.252Z,56.56
2023-02-22T05:27:39.223Z,56.24
2023-02-22T05:28:39.184Z,52.37
2023-02-22T05:29:39.261Z,55.59
2023-02-22T05:30:39.269Z,52.21
2023-02-22T05:31:39.313Z,51.56
2023-02-22T05:32:39.177Z,53.82
2023-02-22T05:33:39.150Z,52.37
2023-02-22T05:34:39.208Z,51.40
2023-02-22T05:35:39.159Z,53.01
2023-02-22T05:36:39.143Z,49.15
2023-02-22T05:37:39.148Z,54.30
2023-02-22T05:38:39.075Z,54.95
2023-02-22T05:39:39.110Z,54.95
2023-02-22T05:40:39.228Z,54.79
2023-02-22T05:41:39.086Z,54.46
2023-02-22T05:42:39.070Z,55.11
2023-02-22T05:43:39.094Z,56.72
2023-02-22T05:44:39.106Z,55.91
2023-02-22T05:45:39.045Z,55.27
2023-02-22T05:46:39.149Z,56.88
2023-02-22T05:47:39.579Z,55.43
2023-02-22T05:48:39.020Z,54.30
2023-02-22T05:49:39.061Z,52.05
2023-02-22T05:50:38.985Z,51.88
2023-02-22T05:51:38.999Z,54.46
2023-02-22T05:52:39.023Z,54.30
2023-02-22T05:53:38.971Z,52.53
2023-02-22T05:54:38.957Z,53.17
2023-02-22T05:55:38.982Z,50.60
2023-02-22T05:56:38.961Z,55.27
2023-02-22T05:57:38.967Z,55.27
2023-02-22T05:58:38.894Z,54.14
2023-02-22T05:59:39.214Z,57.36
2023-02-22T06:00:38.873Z,52.69
2023-02-22T06:01:38.894Z,56.07
2023-02-22T06:02:38.888Z,51.24
2023-02-22T06:03:38.864Z,56.88
2023-02-22T06:04:38.873Z,54.79
2023-02-22T06:05:38.908Z,55.27
2023-02-22T06:06:38.856Z,54.14
2023-02-22T06:07:38.837Z,54.79
2023-02-22T06:08:38.835Z,55.43
2023-02-22T06:09:38.806Z,56.24
2023-02-22T06:10:38.777Z,54.46
2023-02-22T06:11:38.771Z,56.24
2023-02-22T06:12:38.773Z,54.62
2023-02-22T06:13:38.776Z,55.27
2023-02-22T06:14:38.746Z,56.72
2023-02-22T06:15:38.851Z,52.69
2023-02-22T06:16:38.751Z,53.66
2023-02-22T06:17:38.718Z,56.88
2023-02-22T06:33:15.874Z,56.56
2023-02-22T06:34:15.873Z,56.88
2023-02-22T06:35:15.972Z,55.91
2023-02-22T06:36:17.017Z,55.43
2023-02-22T06:37:17.009Z,60.10
2023-02-22T06:38:16.990Z,56.56
2023-02-22T06:39:16.981Z,55.75
2023-02-22T06:40:16.969Z,59.46
2023-02-22T06:41:17.232Z,56.40
2023-02-22T06:42:17.032Z,52.85
2023-02-22T06:43:17.074Z,57.36
2023-02-22T06:44:16.961Z,56.24
2023-02-22T06:45:16.896Z,56.40
2023-02-22T06:46:16.914Z,55.59
2023-02-22T06:47:16.861Z,56.56
2023-02-22T06:48:16.914Z,59.94
2023-02-22T06:49:16.860Z,58.81
2023-02-22T06:50:16.892Z,59.94
2023-02-22T06:51:18.079Z,57.85
2023-02-22T06:52:16.876Z,56.07
2023-02-22T06:53:16.822Z,60.75
2023-02-22T06:54:16.892Z,56.24
2023-02-22T06:55:16.853Z,56.72
2023-02-22T06:56:16.810Z,57.36
2023-02-22T06:57:16.795Z,57.69
2023-02-22T06:58:16.762Z,57.04
2023-02-22T06:59:16.780Z,55.75
2023-02-22T07:00:16.790Z,56.07
2023-02-22T07:01:17.217Z,55.11
2023-02-22T07:02:16.755Z,52.37
2023-02-22T07:03:16.761Z,52.85
2023-02-22T07:04:16.721Z,56.40
2023-02-22T07:05:16.744Z,55.91
2023-02-22T07:06:16.748Z,51.88
2023-02-22T07:07:16.685Z,55.27
2023-02-22T07:08:16.667Z,52.69
2023-02-22T07:09:16.671Z,52.37
2023-02-22T07:10:16.693Z,56.40
2023-02-22T07:11:17.147Z,58.81
2023-02-22T07:12:16.617Z,53.17
2023-02-22T07:13:16.671Z,55.27
2023-02-22T07:14:16.624Z,56.88
2023-02-22T07:15:16.627Z,52.21
2023-02-22T07:16:16.772Z,54.62
2023-02-22T07:17:16.577Z,53.01
2023-02-22T07:18:16.597Z,56.88
2023-02-22T07:19:16.575Z,56.07
2023-02-22T07:20:16.617Z,56.40
2023-02-22T07:21:16.814Z,55.75
2023-02-22T07:22:16.507Z,57.85
2023-02-22T07:23:16.539Z,55.59
2023-02-22T07:24:16.551Z,54.62
2023-02-22T07:25:16.530Z,54.30
2023-02-22T07:26:16.513Z,55.11
2023-02-22T07:27:16.487Z,52.21
2023-02-22T07:28:16.503Z,53.66
2023-02-22T07:29:16.484Z,57.36
2023-02-22T07:30:16.578Z,58.81
2023-02-22T07:31:16.611Z,58.65
2023-02-22T07:32:16.595Z,58.17
2023-02-22T07:33:16.477Z,54.95
2023-02-22T07:34:16.467Z,54.79
2023-02-22T07:35:16.435Z,52.05
2023-02-22T07:36:16.421Z,53.98
2023-02-22T07:37:16.375Z,53.17
2023-02-22T07:38:16.375Z,54.79
2023-02-22T07:39:16.435Z,54.14
2023-02-22T07:40:16.390Z,58.33
2023-02-22T07:41:16.619Z,53.66
2023-02-22T07:42:16.327Z,51.88
2023-02-22T07:43:16.322Z,56.56
2023-02-22T07:44:16.307Z,54.46
2023-02-22T07:45:16.320Z,54.46
2023-02-22T07:46:16.258Z,48.82
2023-02-22T07:47:16.288Z,53.01
2023-02-22T07:48:17.361Z,51.40
2023-02-22T07:49:17.300Z,54.30
2023-02-22T07:50:16.303Z,52.21
2023-02-22T07:51:16.614Z,52.69
2023-02-22T07:52:16.238Z,53.82
2023-02-22T07:53:16.269Z,52.21
2023-02-22T07:54:16.222Z,52.37
2023-02-22T07:55:16.236Z,53.82
2023-02-22T07:56:16.187Z,53.50
2023-02-22T07:57:16.171Z,55.75
2023-02-22T07:58:16.189Z,56.88
2023-02-22T07:59:16.210Z,52.37
2023-02-22T08:00:16.209Z,53.66
2023-02-22T08:01:16.452Z,53.66
2023-02-22T08:02:16.141Z,55.43
2023-02-22T08:03:16.142Z,53.66
2023-02-22T08:04:16.134Z,52.69
2023-02-22T08:05:16.101Z,52.69
2023-02-22T08:06:16.110Z,53.66
2023-02-22T08:07:17.064Z,48.50
2023-02-22T08:08:18.200Z,47.53
2023-02-22T08:09:16.071Z,53.66
2023-02-22T08:10:16.095Z,52.85
2023-02-22T08:11:16.391Z,55.11
2023-02-22T08:12:16.029Z,50.76
2023-02-22T08:13:17.144Z,53.17
2023-02-22T08:14:16.007Z,52.21
2023-02-22T08:15:16.024Z,51.88
2023-02-22T08:16:15.994Z,54.30
2023-02-22T08:17:16.027Z,53.50
2023-02-22T08:18:15.995Z,51.08
2023-02-22T08:19:15.937Z,51.08
2023-02-22T08:20:15.971Z,47.05
2023-02-22T08:21:16.248Z,49.63
2023-02-22T08:22:15.928Z,50.76
2023-02-22T08:23:15.958Z,47.70
2023-02-22T08:24:15.926Z,49.79
2023-02-22T08:25:15.924Z,48.34
2023-02-22T08:26:15.914Z,52.53
2023-02-22T08:27:15.878Z,53.33
2023-02-22T08:28:15.868Z,52.85
2023-02-22T08:29:15.880Z,51.08
2023-02-22T08:30:15.867Z,46.41
2023-02-22T08:31:16.147Z,52.53
2023-02-22T08:32:16.919Z,52.53
2023-02-22T08:33:16.013Z,54.62
2023-02-22T08:34:15.813Z,55.27
2023-02-22T08:35:15.835Z,54.30
2023-02-22T08:36:15.796Z,48.34
2023-02-22T08:37:15.793Z,51.40
2023-02-22T08:38:15.801Z,50.11
2023-02-22T08:39:15.938Z,49.79
2023-02-22T08:40:15.760Z,49.15
2023-02-22T08:41:16.096Z,51.88
2023-02-22T08:42:15.758Z,51.08
2023-02-22T08:43:15.732Z,55.91
2023-02-22T08:44:15.837Z,50.92
2023-02-22T08:45:15.755Z,52.69
2023-02-22T08:46:15.738Z,54.79
2023-02-22T08:47:15.710Z,50.76
2023-02-22T08:48:15.686Z,52.05
2023-02-22T08:49:15.699Z,54.95
2023-02-22T08:50:15.665Z,47.53
2023-02-22T08:51:16.012Z,45.12
2023-02-22T08:52:15.622Z,50.60
2023-02-22T08:53:15.652Z,53.66
2023-02-22T08:54:15.666Z,54.79
2023-02-22T08:55:15.728Z,51.40
2023-02-22T08:56:15.597Z,55.43
2023-02-22T08:57:15.609Z,56.40
2023-02-22T08:58:15.630Z,56.40
2023-02-22T08:59:15.603Z,51.72
2023-02-22T09:00:15.596Z,54.14
2023-02-22T09:01:21.820Z,55.11
2023-02-22T09:02:17.586Z,52.69
2023-02-22T09:03:15.643Z,55.11
2023-02-22T09:04:15.512Z,55.11
2023-02-22T09:05:15.582Z,53.17
2023-02-22T09:06:15.572Z,53.01
2023-02-22T09:07:15.525Z,54.95
2023-02-22T09:08:15.466Z,53.66
2023-02-22T09:09:15.479Z,53.33
2023-02-22T09:10:15.457Z,52.69
2023-02-22T09:11:15.562Z,53.01
2023-02-22T09:12:15.497Z,53.66
2023-02-22T09:13:15.412Z,53.01
2023-02-22T09:14:15.473Z,53.82
2023-02-22T09:15:15.415Z,53.17
2023-02-22T09:16:15.414Z,48.98
2023-02-22T09:17:15.461Z,53.50
2023-02-22T09:18:15.377Z,53.50
2023-02-22T09:19:15.363Z,52.21
2023-02-22T09:20:15.366Z,52.21
2023-02-22T09:21:15.755Z,49.95
2023-02-22T09:22:15.348Z,53.01
2023-02-22T09:23:15.301Z,48.18
2023-02-22T09:24:15.324Z,50.92
2023-02-22T09:25:17.293Z,56.88
2023-02-22T09:26:16.339Z,54.14
2023-02-22T09:27:15.287Z,52.85
2023-02-22T09:28:15.260Z,48.34
2023-02-22T09:29:15.276Z,50.43
2023-02-22T09:30:15.299Z,51.40
2023-02-22T09:31:15.461Z,51.88
2023-02-22T09:32:15.291Z,50.11
2023-02-22T09:33:15.356Z,53.50
2023-02-22T09:34:15.205Z,50.11
2023-02-22T09:35:15.194Z,53.17
2023-02-22T09:36:15.408Z,54.14
2023-02-22T09:37:15.191Z,56.24
2023-02-22T09:38:15.158Z,54.30
2023-02-22T09:39:15.141Z,50.60
2023-02-22T09:40:15.138Z,51.24
2023-02-22T09:41:15.509Z,45.44
2023-02-22T09:42:15.135Z,50.60
2023-02-22T09:43:15.137Z,50.76
2023-02-22T09:44:15.152Z,53.17
2023-02-22T09:45:15.081Z,48.82
2023-02-22T09:46:15.484Z,47.86
2023-02-22T09:47:15.120Z,49.63
2023-02-22T09:48:21.717Z,53.82
2023-02-22T09:49:17.056Z,54.79
2023-02-22T09:50:15.057Z,54.14
2023-02-22T09:51:15.187Z,53.50
2023-02-22T09:52:15.026Z,51.56
2023-02-22T09:53:15.041Z,52.85
2023-02-22T09:54:14.990Z,51.88
2023-02-22T09:55:15.008Z,49.63
2023-02-22T09:56:15.260Z,50.27
2023-02-22T09:57:14.992Z,50.60
2023-02-22T09:58:14.995Z,53.98
2023-02-22T09:59:14.958Z,50.76
2023-02-22T10:00:14.948Z,52.21
2023-02-22T10:01:15.085Z,51.08
2023-02-22T10:02:14.918Z,50.60
2023-02-22T10:03:14.978Z,50.92
2023-02-22T10:04:14.926Z,54.95
2023-02-22T10:05:15.060Z,53.01
2023-02-22T10:06:15.192Z,49.63
2023-02-22T10:07:14.865Z,52.69
2023-02-22T10:08:14.867Z,50.27
2023-02-22T10:09:14.870Z,52.69
2023-02-22T10:10:14.884Z,50.43
2023-02-22T10:11:14.874Z,52.21
2023-02-22T10:12:14.955Z,53.66
2023-02-22T10:13:14.804Z,53.17
2023-02-22T10:14:14.820Z,51.88
2023-02-22T10:15:14.795Z,54.95
2023-02-22T10:16:14.896Z,52.05
2023-02-22T10:17:14.796Z,53.33
2023-02-22T10:18:14.793Z,56.88
2023-02-22T10:19:14.800Z,50.43
2023-02-22T10:20:14.759Z,52.69
2023-02-22T10:21:14.791Z,55.75
2023-02-22T10:22:14.715Z,51.72
2023-02-22T10:23:14.758Z,54.30
2023-02-22T10:24:14.769Z,53.17
2023-02-22T10:25:14.708Z,53.50
2023-02-22T10:26:14.957Z,55.43
2023-02-22T10:27:14.697Z,53.01
2023-02-22T10:28:14.701Z,52.37
2023-02-22T10:29:14.682Z,54.79
2023-02-22T10:30:24.125Z,55.59
2023-02-22T10:31:16.793Z,54.79
2023-02-22T10:32:14.786Z,50.92
2023-02-22T10:33:14.626Z,52.05
2023-02-22T10:34:14.616Z,48.66
2023-02-22T10:35:14.658Z,53.17
2023-02-22T10:36:14.898Z,51.24
2023-02-22T10:37:14.585Z,56.40
2023-02-22T10:38:14.644Z,55.75
2023-02-22T10:39:14.610Z,43.99
2023-02-22T10:40:14.603Z,54.62
2023-02-22T10:41:16.352Z,49.95
2023-02-22T10:42:14.564Z,53.17
2023-02-22T10:43:14.535Z,54.79
2023-02-22T10:44:14.525Z,52.69
2023-02-22T10:45:14.505Z,54.14
2023-02-22T10:46:14.681Z,51.56
2023-02-22T10:47:16.594Z,51.72
2023-02-22T10:48:14.538Z,50.11
2023-02-22T10:49:14.466Z,54.95
2023-02-22T10:50:14.473Z,52.69
2023-02-22T10:51:14.466Z,55.59
2023-02-22T10:52:14.449Z,52.05
2023-02-22T10:53:14.442Z,53.98
2023-02-22T10:54:14.434Z,46.73
2023-02-22T10:55:15.851Z,53.33
2023-02-22T10:56:14.593Z,51.40
2023-02-22T10:57:14.410Z,57.85
2023-02-22T10:58:14.421Z,56.72
2023-02-22T10:59:14.389Z,54.30
2023-02-22T11:00:14.374Z,54.46
2023-02-22T11:01:14.505Z,53.66
2023-02-22T11:02:14.336Z,54.95
2023-02-22T11:03:14.343Z,53.82
2023-02-22T11:04:14.423Z,56.40
2023-02-22T11:05:14.341Z,57.36
2023-02-22T11:06:14.680Z,58.81
2023-02-22T11:07:14.290Z,58.17
2023-02-22T11:08:14.306Z,55.75
2023-02-22T11:09:14.296Z,54.46
2023-02-22T11:10:14.265Z,55.27
2023-02-22T11:11:14.570Z,56.88
2023-02-22T11:12:14.227Z,55.91
2023-02-22T11:13:14.254Z,56.72
2023-02-22T11:14:14.257Z,55.91
2023-02-22T11:15:14.215Z,53.66
2023-02-22T11:16:14.284Z,56.07
2023-02-22T11:17:14.203Z,55.43
2023-02-22T11:18:14.161Z,54.79
2023-02-22T11:19:14.181Z,55.27
2023-02-22T11:20:14.144Z,55.75
2023-02-22T11:21:14.178Z,51.56
2023-02-22T11:22:14.208Z,53.01
2023-02-22T11:23:14.129Z,51.88
2023-02-22T11:24:14.135Z,56.24
2023-02-22T11:25:14.179Z,54.79
2023-02-22T11:26:14.098Z,53.50
2023-02-22T11:27:14.125Z,53.17
2023-02-22T11:28:14.084Z,55.91
2023-02-22T11:29:14.078Z,49.79
2023-02-22T11:30:14.051Z,55.11
2023-02-22T11:31:14.080Z,54.30
2023-02-22T11:32:15.092Z,54.62
2023-02-22T11:33:14.074Z,50.11
2023-02-22T11:34:14.023Z,51.56
2023-02-22T11:35:13.994Z,53.66
2023-02-22T11:36:14.005Z,52.21
2023-02-22T11:37:14.021Z,51.72
2023-02-22T11:38:13.986Z,50.60
2023-02-22T11:39:14.037Z,50.76
2023-02-22T11:40:13.974Z,54.46
2023-02-22T11:41:14.010Z,53.17
2023-02-22T11:42:13.989Z,53.17
2023-02-22T11:43:13.924Z,51.72
2023-02-22T11:44:13.916Z,52.37
2023-02-22T11:45:13.924Z,51.08
2023-02-22T11:46:13.937Z,53.82
2023-02-22T11:47:14.011Z,49.79
2023-02-22T11:48:13.906Z,52.53
2023-02-22T11:49:14.291Z,50.60
2023-02-22T11:50:13.873Z,53.01
2023-02-22T11:51:14.713Z,52.69
2023-02-22T11:52:13.863Z,54.30
2023-02-22T11:53:13.819Z,54.14
2023-02-22T11:54:13.835Z,51.72
2023-02-22T11:55:13.812Z,53.17
2023-02-22T11:56:13.791Z,53.17
2023-02-22T11:57:13.810Z,54.79
2023-02-22T11:58:13.919Z,53.01
2023-02-22T11:59:14.806Z,57.04
2023-02-22T12:00:13.778Z,55.27
2023-02-22T12:01:13.743Z,56.07
2023-02-22T12:02:13.753Z,57.20
2023-02-22T12:03:13.837Z,59.62
2023-02-22T12:04:13.775Z,58.65
2023-02-22T12:05:13.728Z,58.49
2023-02-22T12:06:13.709Z,59.62
2023-02-22T12:07:13.697Z,56.24
2023-02-22T12:08:19.627Z,56.88
2023-02-22T12:09:15.682Z,53.50
2023-02-22T12:10:13.638Z,54.95
2023-02-22T12:11:13.649Z,53.50
2023-02-22T12:12:13.635Z,53.82
2023-02-22T12:13:13.613Z,53.66
2023-02-22T12:14:13.590Z,53.50
2023-02-22T12:15:13.637Z,52.37
2023-02-22T12:16:13.625Z,54.14
2023-02-22T12:17:13.584Z,55.75
2023-02-22T12:18:13.568Z,53.17
2023-02-22T12:19:13.562Z,52.37
2023-02-22T12:20:13.654Z,55.27
2023-02-22T12:21:13.525Z,56.07
2023-02-22T12:22:13.568Z,55.43
2023-02-22T12:23:13.494Z,53.98
2023-02-22T12:24:13.504Z,54.30
2023-02-22T12:25:13.525Z,53.50
2023-02-22T12:26:13.495Z,52.21
2023-02-22T12:27:13.586Z,52.37
2023-02-22T12:28:24.247Z,53.01
2023-02-22T12:29:15.469Z,57.69
2023-02-22T12:30:13.511Z,55.75
2023-02-22T12:31:13.523Z,53.66
2023-02-22T12:32:13.592Z,60.10
2023-02-22T12:33:13.405Z,55.59
2023-02-22T12:34:13.531Z,54.14
2023-02-22T12:35:13.416Z,56.07
2023-02-22T12:36:13.410Z,53.50
2023-02-22T12:37:13.439Z,53.98
2023-02-22T12:38:13.408Z,54.62
2023-02-22T12:39:13.425Z,53.33
2023-02-22T12:40:13.364Z,59.30
2023-02-22T12:41:13.348Z,56.88
2023-02-22T12:42:13.386Z,58.17
2023-02-22T12:43:13.307Z,56.07
2023-02-22T12:44:13.329Z,57.69
2023-02-22T12:45:13.337Z,57.85
2023-02-22T12:46:13.297Z,58.17
2023-02-22T12:47:13.317Z,59.14
2023-02-22T12:48:13.276Z,59.62
2023-02-22T12:49:13.315Z,58.49
2023-02-22T12:50:15.585Z,54.46
2023-02-22T12:51:14.345Z,53.98
2023-02-22T12:52:21.391Z,56.88
2023-02-22T12:53:15.240Z,57.20
2023-02-22T12:54:13.223Z,53.17
2023-02-22T12:55:13.246Z,53.66
2023-02-22T12:56:13.230Z,52.37
2023-02-22T12:57:13.191Z,52.69
2023-02-22T12:58:13.189Z,53.01
2023-02-22T12:59:13.158Z,52.53
2023-02-22T13:00:13.167Z,51.24
2023-02-22T13:01:13.133Z,52.05
2023-02-22T13:02:13.177Z,49.79
2023-02-22T13:03:13.117Z,50.43
2023-02-22T13:04:20.652Z,49.47
2023-02-22T13:05:15.132Z,55.11
2023-02-22T13:06:13.106Z,52.85
2023-02-22T13:07:13.158Z,51.08